North Spring Valley, Nevada Weather observations

Data are for 10 minute period ending at time listed.
 Day   Time   Solar   Ave.   Ave.  Ave.  Vector  Max.   Baro.   Total    
  of    of     Rad.   Air    Rel.  Wind   Wind   Wind  Press.  Precip.   
Year   Day            Temp.  Hum.  Speed  Dir.   Gust                    
2017   (PST)  Kw/m2    F      %     mph   deg.    mph    mb.     in.     
-------------------------------------------------------------------------
  55   21:20   0.00   19.5    58    3.4   284     5.8   827.8    0.00 
  55   21:30   0.00   20.6    50    3.3   303     4.5   827.8    0.00 
  55   21:40   0.00   18.4    62    4.0   296     5.8   827.8    0.00 
  55   21:50   0.00   17.3    68    3.5   262     4.8   827.7    0.00 
  55   22:00   0.00   17.5    67    3.9   247     4.7   827.6    0.00 
  55   22:10   0.00   17.4    70    4.6   261     5.5   827.6    0.00 
  55   22:20   0.00   16.8    71    1.5   335     4.3   827.6    0.00 
  55   22:30   0.00   16.7    70    1.9     3     2.6   827.6    0.00 
  55   22:40   0.00   16.4    72    0.9     9     2.2   827.6    0.00 
  55   22:50   0.00   16.1    74    1.0    15     3.1   827.6    0.00 
  55   23:00   0.00   16.5    75    1.4    10     2.3   827.6    0.00 
  55   23:10   0.00   16.7    77    1.2   344     2.5   827.5    0.00 
  55   23:20   0.00   17.2    77    2.8   313     3.8   827.6    0.00 
  55   23:30   0.00   17.5    76    1.1    25     3.1   827.4    0.00 
  55   23:40   0.00   17.1    76    1.2    20     2.7   827.5    0.00 
  55   23:50   0.00   17.4    74    0.8   297     2.3   827.5    0.00 
  56    0:00   0.00   17.6    73    0.3    32     1.8   827.5    0.00 
  56    0:10   0.00   17.7    70    1.2    41     1.8   827.4    0.00 
  56    0:20   0.00   17.5    72    1.4    44     2.5   827.4    0.00 
  56    0:30   0.00   17.3    73    1.3    27     2.9   827.4    0.00 
  56    0:40   0.00   17.2    74    1.5    34     3.4   827.3    0.00 
  56    0:50   0.00   17.1    75    1.3    11     2.4   827.3    0.00 
  56    1:00   0.00   17.1    75    0.4   340     1.7   827.3    0.00 
  56    1:10   0.00   17.2    76    0.6   339     1.9   827.3    0.00 
  56    1:20   0.00   17.3    76    0.3   338     1.4   827.3    0.00 
  56    1:30   0.00   17.3    75    0.0     0     0.0   827.3    0.00 
  56    1:40   0.00   17.5    77    0.7   117     2.9   827.2    0.00 
  56    1:50   0.00   17.7    78    0.9   135     2.9   827.2    0.00 
  56    2:00   0.00   17.7    78    1.4   134     2.1   827.1    0.00 
  56    2:10   0.00   17.7    77    0.8   140     1.6   827.1    0.00 
  56    2:20   0.00   17.7    77    0.8   143     1.9   826.9    0.00 
  56    2:30   0.00   17.7    76    0.6   143     1.8   826.8    0.00 
  56    2:40   0.00   17.6    77    0.1   143     0.7   826.8    0.00 
  56    2:50   0.00   17.5    77    0.0     0     0.0   826.7    0.00 
  56    3:00   0.00   17.7    78    0.2   144     0.9   826.7    0.00 
  56    3:10   0.00   17.8    79    0.1   144     0.9   826.5    0.00 
  56    3:20   0.00   18.0    79    0.7   144     1.9   826.4    0.00 
  56    3:30   0.00   18.2    78    0.3   227     2.0   826.4    0.00 
  56    3:40   0.00   18.2    77    0.7   227     2.0   826.3    0.00 
  56    3:50   0.00   18.4    76    0.2   227     1.4   826.3    0.00 
  56    4:00   0.00   18.7    76    0.1   227     0.9   826.2    0.00 
  56    4:10   0.00   18.8    78    0.2   227     1.0   826.2    0.00 
  56    4:20   0.00   18.8    77    0.2   135     1.5   826.1    0.00 
  56    4:30   0.00   18.8    76    0.1    94     2.4   826.1    0.00 
  56    4:40   0.00   18.8    75    1.2    58     2.6   826.1    0.00 
  56    4:50   0.00   18.7    74    0.9    58     2.2   826.1    0.00 
  56    5:00   0.00   18.6    76    0.9    58     2.0   826.2    0.00 
  56    5:10   0.00   18.5    76    0.4    58     1.6   826.2    0.00 
  56    5:20   0.00   18.4    78    0.2    58     1.1   826.1    0.00 
  56    5:30   0.00   18.5    77    0.0    58     0.3   826.2    0.00 
  56    5:40   0.00   18.6    76    0.0     0     0.0   826.3    0.00 
  56    5:50   0.00   18.7    77    0.2    58     0.9   826.2    0.00 
  56    6:00   0.00   18.4    78    1.0    58     2.6   826.1    0.00 
  56    6:10   0.00   17.9    80    0.1    58     0.7   826.1    0.00 
  56    6:20   0.01   17.9    80    0.0    58     0.4   826.1    0.00 
  56    6:30   0.02   17.8    81    0.0     0     0.0   826.1    0.00 
  56    6:40   0.03   18.0    81    0.3    66     1.5   826.1    0.00 
  56    6:50   0.05   18.9    78    0.0     0     0.0   826.2    0.00 
  56    7:00   0.06   19.3    77    0.4    66     1.2   826.3    0.00 
  56    7:10   0.08   19.4    76    0.6    66     1.3   826.3    0.00 
  56    7:20   0.13   20.3    75    0.6    75     2.0   826.4    0.00 
  56    7:30   0.12   20.4    73    1.9   113     3.1   826.5    0.00 
  56    7:40   0.12   20.2    74    2.7   135     3.9   826.7    0.00 
  56    7:50   0.14   20.5    75    2.5   123     4.0   826.7    0.00 
  56    8:00   0.15   20.7    74    1.9   128     3.9   826.7    0.00 
  56    8:10   0.19   21.1    73    1.0   108     2.3   826.6    0.00 
  56    8:20   0.22   21.8    71    1.0    17     2.4   826.7    0.00 
  56    8:30   0.22   22.2    68    1.7    29     3.1   826.7    0.00 
  56    8:40   0.28   23.2    64    0.9    64     3.9   826.7    0.00 
  56    8:50   0.38   24.4    61    0.7   139     2.9   826.7    0.00 
  56    9:00   0.36   25.1    60    0.9   137     3.1   826.6    0.00 
  56    9:10   0.40   25.8    59    2.0   129     3.4   826.6    0.00 
  56    9:20   0.36   25.7    58    2.3   142     5.5   826.5    0.00 
  56    9:30   0.42   26.1    56    1.9   130     4.2   826.3    0.00 
  56    9:40   0.41   26.3    55    3.3   155     6.0   826.2    0.00 
  56    9:50   0.48   27.2    55    3.7   158     6.5   826.1    0.00 
  56   10:00   0.55   28.2    55    4.2   165     7.8   826.1    0.00 
  56   10:10   0.57   28.1    54    5.5   156     9.5   826.1    0.00 
  56   10:20   0.58   28.3    51    6.5   172    10.7   826.1    0.00 
  56   10:30   0.64   29.1    48    7.2   169    12.3   826.1    0.00 
  56   10:40   0.60   29.4    50    6.7   164    10.0   825.9    0.00 
  56   10:50   0.72   30.1    50    7.1   170    10.7   825.7    0.00 
  56   11:00   0.81   30.8    49    6.9   152    10.5   825.6    0.00 
  56   11:10   0.63   30.5    47    6.3   154    11.2   825.5    0.00 
  56   11:20   0.66   30.3    46    6.5   156    10.8   825.4    0.00 
  56   11:30   0.59   30.8    46    6.3   152    12.6   825.4    0.00 
  56   11:40   0.47   30.5    46    7.0   143    10.6   825.2    0.00 
  56   11:50   0.46   30.6    46    6.5   157    13.2   825.1    0.00 
  56   12:00   0.51   30.6    45    7.6   142    11.2   825.0    0.00 
  56   12:10   0.57   30.7    45    7.8   125    11.7   824.9    0.00 
  56   12:20   0.54   30.9    45    7.8   126    11.6   824.7    0.00 
  56   12:30   0.45   31.3    45    6.4   134    11.0   824.7    0.00 
  56   12:40   0.39   30.9    43    5.8   135    13.1   824.5    0.00 
  56   12:50   0.39   31.3    43    5.8   162     9.8   824.5    0.00 
  56   13:00   0.43   31.3    44    7.1   150    10.2   824.3    0.00 
  56   13:10   0.48   31.6    44    5.8   144    10.4   824.2    0.00 
  56   13:20   0.52   31.7    45    7.6   145    13.1   824.1    0.00 
  56   13:30   0.59   32.4    43    5.3   168     9.9   824.0    0.00 
  56   13:40   0.52   32.7    42    5.2   154     8.6   823.9    0.00 
  56   13:50   0.52   32.5    41    5.8   143    12.7   823.8    0.00 
  56   14:00   0.45   32.0    43    6.7   128    14.0   823.7    0.00 
  56   14:10   0.49   33.0    44    6.0   155    10.0   823.7    0.00 
  56   14:20   0.53   33.2    43    6.2   165    10.2   823.6    0.00 
  56   14:30   0.43   32.9    43    5.3   148    10.2   823.5    0.00 
  56   14:40   0.30   32.6    44    4.6   138     8.0   823.5    0.00 
  56   14:50   0.21   32.7    43    2.0    90     5.9   823.6    0.00 
  56   15:00   0.20   30.9    53    9.5   328    15.9   823.7    0.00 
  56   15:10   0.21   29.6    61    8.6   311    13.0   823.7    0.00 
  56   15:20   0.26   29.9    63    9.2   334    12.9   823.6    0.00 
  56   15:30   0.12   28.9    66    7.3   349    10.3   823.4    0.00 
  56   15:40   0.07   28.1    66    5.2     5     7.4   823.3    0.00 
  56   15:50   0.07   28.2    66    3.3    12     5.7   823.2    0.00 
  56   16:00   0.09   28.4    64    2.1     8     3.0   823.2    0.00 
  56   16:10   0.11   28.9    63    2.4    14     3.2   823.2    0.00 
  56   16:20   0.09   29.8    57    4.9    15     9.0   823.1    0.00 
  56   16:30   0.07   29.5    61    8.6     6    14.0   823.3    0.00 
  56   16:40   0.06   28.1    72    9.8   360    14.0   823.4    0.00 
  56   16:50   0.04   27.6    74    7.1     2    11.5   823.3    0.00 
  56   17:00   0.03   27.6    73    5.4    12     7.2   823.2    0.00 
  56   17:10   0.02   27.6    72    5.4   359     7.2   823.2    0.00 
  56   17:20   0.01   27.5    71    4.8     7     7.5   823.2    0.00 
  56   17:30   0.01   27.3    70    3.7   339     5.3   823.2    0.00 
  56   17:40   0.00   26.8    70    3.0   315     4.3   823.2    0.00 
  56   17:50   0.00   26.4    70    3.2   312     4.2   823.2    0.00 
  56   18:00   0.00   25.9    71    3.8   289     4.7   823.2    0.00 
  56   18:10   0.00   26.5    68    2.2   315     3.7   823.3    0.00 
  56   18:20   0.00   26.3    70    3.5   353     4.7   823.5    0.00 
  56   18:30   0.00   26.5    71    6.2     3    10.5   823.5    0.00 
  56   18:40   0.00   26.4    72    6.0   336     7.8   823.5    0.00 
  56   18:50   0.00   25.8    74    4.6   337     6.5   823.5    0.00 
  56   19:00   0.00   25.4    75    4.2   330     5.3   823.4    0.00 
  56   19:10   0.00   25.1    74    4.5   336     6.9   823.4    0.00 
  56   19:20   0.00   25.2    73    5.9   342     8.6   823.4    0.00 
  56   19:30   0.00   25.4    74    6.8   352    10.4   823.5    0.00 
  56   19:40   0.00   25.0    75    5.4   337     8.0   823.4    0.00 
  56   19:50   0.00   23.8    77    4.2   307     6.2   823.5    0.00 
  56   20:00   0.00   23.0    80    2.8   326     3.8   823.6    0.00 
  56   20:10   0.00   23.1    79    2.1   334     3.1   823.5    0.00 
  56   20:20   0.00   22.7    79    1.9   347     2.7   823.5    0.00 
  56   20:30   0.00   21.8    81    0.8   352     1.8   823.6    0.00 
  56   20:40   0.00   21.1    83    0.2   263     1.7   823.7    0.00 
  56   20:50   0.00   21.1    82    0.9   323     2.2   823.8    0.00 
  56   21:00   0.00   21.6    79    1.3   326     2.4   823.9    0.00 
  56   21:10   0.00   21.6    81    1.9   327     3.2   823.9    0.00 

Return to North Spring Valley graphs page.


Western Regional Climate Center,wrcc@dri.edu